Time;durP1;ratioP1;P1;durP2;ratioP2;P2;SDS_P1;SDS_P2;PMS_P1;PMS_P2;Temp;Humidity;BMP_temperature;BMP_pressure;BME280_temperature;BME280_humidity;BME280_pressure;Samples;Min_cycle;Max_cycle;Signal;HPM_P1;HPM_P2
2021/04/18 00:00:40;;;;;;;4.85;2.53;;;6.60;53.70;;;;;;4362020;32;20151;-60
2021/04/18 00:03:06;;;;;;;4.40;2.50;;;6.60;54.00;;;;;;4350000;32;20065;-59
2021/04/18 00:05:33;;;;;;;5.47;2.90;;;6.60;53.60;;;;;;4363126;32;20066;-60
2021/04/18 00:08:02;;;;;;;4.78;2.95;;;6.60;52.90;;;;;;4337534;32;20074;-60
2021/04/18 00:10:33;;;;;;;5.12;3.00;;;6.60;53.20;;;;;;4338676;32;20162;-60
2021/04/18 00:13:00;;;;;;;4.75;2.90;;;6.60;53.00;;;;;;4337587;32;20062;-61
2021/04/18 00:15:26;;;;;;;9.02;3.08;;;6.50;53.30;;;;;;4326284;32;20080;-60
2021/04/18 00:17:52;;;;;;;5.47;2.90;;;6.60;53.30;;;;;;4338269;32;20487;-60
2021/04/18 00:20:19;;;;;;;5.03;2.92;;;6.40;53.50;;;;;;4350188;32;20148;-59
2021/04/18 00:22:45;;;;;;;5.87;3.53;;;6.40;53.40;;;;;;4325620;32;20084;-58
2021/04/18 00:25:13;;;;;;;5.22;3.20;;;6.40;54.30;;;;;;4350857;32;20143;-59
2021/04/18 00:27:40;;;;;;;4.53;3.00;;;6.30;54.50;;;;;;4338127;32;20501;-61
2021/04/18 00:30:08;;;;;;;5.10;2.92;;;6.30;55.80;;;;;;4337969;32;20098;-60
2021/04/18 00:32:35;;;;;;;8.55;3.15;;;6.20;54.80;;;;;;4337754;32;20501;-61
2021/04/18 00:35:01;;;;;;;4.37;3.10;;;6.20;54.90;;;;;;4340965;32;20063;-60
2021/04/18 00:37:27;;;;;;;5.25;3.22;;;6.10;54.90;;;;;;4337687;32;20150;-60
2021/04/18 00:39:53;;;;;;;6.35;3.60;;;6.10;55.50;;;;;;4337641;32;20083;-59
2021/04/18 00:42:20;;;;;;;8.32;3.45;;;6.10;55.20;;;;;;4325595;32;20077;-60
2021/04/18 00:44:46;;;;;;;6.72;3.40;;;6.10;55.30;;;;;;4326413;32;20082;-59
2021/04/18 00:47:12;;;;;;;5.50;3.30;;;6.10;55.20;;;;;;4337948;32;20059;-60
2021/04/18 00:49:39;;;;;;;6.22;2.85;;;6.00;55.60;;;;;;4313370;32;20075;-59
2021/04/18 00:52:05;;;;;;;8.25;3.45;;;6.00;56.00;;;;;;4313214;32;20163;-59
2021/04/18 00:54:32;;;;;;;5.80;3.08;;;5.90;56.30;;;;;;4313210;32;20070;-58
2021/04/18 00:56:58;;;;;;;8.35;3.37;;;5.90;56.60;;;;;;4337790;32;20228;-59
2021/04/18 00:59:24;;;;;;;5.45;3.12;;;5.80;57.20;;;;;;4325412;32;20442;-59
2021/04/18 01:01:50;;;;;;;5.32;3.15;;;5.70;57.70;;;;;;4325561;32;20525;-60
2021/04/18 01:04:17;;;;;;;5.95;2.90;;;5.70;57.60;;;;;;4328432;32;20074;-59
2021/04/18 01:06:43;;;;;;;4.78;3.03;;;5.60;58.40;;;;;;4367680;32;20059;-63
2021/04/18 01:09:09;;;;;;;6.20;2.80;;;5.70;58.50;;;;;;4325141;32;20067;-59
2021/04/18 01:11:35;;;;;;;5.45;2.85;;;5.70;57.70;;;;;;4325121;32;20058;-59
2021/04/18 01:14:01;;;;;;;5.18;2.65;;;5.60;58.30;;;;;;4324823;32;20158;-60
2021/04/18 01:16:28;;;;;;;4.43;2.55;;;5.60;57.90;;;;;;4350702;32;20096;-59
2021/04/18 01:18:54;;;;;;;6.50;2.50;;;5.50;58.30;;;;;;4336952;32;20086;-60
2021/04/18 01:21:21;;;;;;;5.85;3.08;;;5.40;59.40;;;;;;4349210;32;20070;-60
2021/04/18 01:23:47;;;;;;;4.93;2.85;;;5.50;59.80;;;;;;4337350;32;20067;-58
2021/04/18 01:26:14;;;;;;;5.07;2.50;;;5.40;59.40;;;;;;4350047;32;20059;-59
2021/04/18 01:28:41;;;;;;;5.47;2.60;;;5.30;60.00;;;;;;4337342;32;20150;-60
2021/04/18 01:31:07;;;;;;;5.00;2.50;;;5.20;60.70;;;;;;4324111;32;20083;-59
2021/04/18 01:33:34;;;;;;;8.13;2.40;;;5.30;60.50;;;;;;4336817;32;20097;-59
2021/04/18 01:36:06;;;;;;;4.97;2.60;;;5.40;59.40;;;;;;4322761;32;20078;-59
2021/04/18 01:38:32;;;;;;;4.78;2.47;;;5.50;58.50;;;;;;4301469;32;20082;-59
2021/04/18 01:40:59;;;;;;;4.97;2.67;;;5.50;59.10;;;;;;4335013;32;20086;-59
2021/04/18 01:43:25;;;;;;;4.68;2.67;;;5.60;58.10;;;;;;4333239;32;20066;-59
2021/04/18 01:45:52;;;;;;;4.37;2.40;;;5.50;59.20;;;;;;4325736;32;20071;-59
2021/04/18 01:48:18;;;;;;;6.55;2.45;;;5.40;60.00;;;;;;4324608;32;20513;-59
2021/04/18 01:50:49;;;;;;;6.53;2.53;;;5.40;59.80;;;;;;4300192;32;20543;-59
2021/04/18 01:53:15;;;;;;;3.60;1.98;;;5.20;60.60;;;;;;4312802;32;20066;-59
2021/04/18 01:55:42;;;;;;;3.70;2.10;;;5.60;59.10;;;;;;4337187;32;20077;-59
2021/04/18 01:58:08;;;;;;;3.45;2.60;;;5.60;58.20;;;;;;4313845;32;20062;-60
2021/04/18 02:00:35;;;;;;;6.53;2.95;;;5.70;57.70;;;;;;4300075;32;20074;-60
2021/04/18 02:03:02;;;;;;;4.80;2.60;;;5.60;58.10;;;;;;4312711;32;20517;-60
2021/04/18 02:05:33;;;;;;;6.57;2.53;;;5.50;59.30;;;;;;4312120;32;20156;-60
2021/04/18 02:08:00;;;;;;;4.05;2.33;;;5.40;60.10;;;;;;4325287;32;20058;-60
2021/04/18 02:10:26;;;;;;;7.32;2.60;;;5.40;60.00;;;;;;4312634;32;20074;-59
2021/04/18 02:12:53;;;;;;;3.85;2.78;;;5.30;60.90;;;;;;4312271;32;20074;-59
2021/04/18 02:15:20;;;;;;;4.18;2.08;;;5.30;61.60;;;;;;4323886;32;20078;-59
2021/04/18 02:17:46;;;;;;;7.20;2.35;;;5.20;61.40;;;;;;4336804;32;20167;-59
2021/04/18 02:20:16;;;;;;;5.03;2.87;;;5.20;61.60;;;;;;4336538;32;20073;-60
2021/04/18 02:22:44;;;;;;;6.62;2.78;;;5.00;62.60;;;;;;4324544;32;20063;-59
2021/04/18 02:25:11;;;;;;;5.85;2.40;;;5.00;63.10;;;;;;4348575;32;20147;-59
2021/04/18 02:28:37;;;;;;;5.85;3.00;;;5.10;63.00;;;;;;4337152;32;20079;-59
2021/04/18 02:32:03;;;;;;;4.47;2.42;;;5.10;63.40;;;;;;4361564;32;20072;-60
2021/04/18 02:35:30;;;;;;;5.45;2.65;;;5.10;63.00;;;;;;4351020;32;20154;-59
2021/04/18 02:37:56;;;;;;;6.32;2.80;;;5.20;61.80;;;;;;4362475;32;20245;-60
2021/04/18 02:40:22;;;;;;;4.57;2.55;;;5.20;62.60;;;;;;4335889;32;20062;-60
2021/04/18 02:42:48;;;;;;;4.15;2.28;;;5.30;61.80;;;;;;4348673;32;20078;-60
2021/04/18 02:45:15;;;;;;;5.30;2.60;;;5.30;61.60;;;;;;4324365;32;20158;-60
2021/04/18 02:47:41;;;;;;;6.22;2.47;;;5.30;61.00;;;;;;4328351;32;20077;-59
2021/04/18 02:50:09;;;;;;;5.20;2.67;;;5.30;61.50;;;;;;4378662;32;20086;-59
2021/04/18 02:52:35;;;;;;;10.00;2.85;;;5.30;61.40;;;;;;4353316;32;20069;-65
2021/04/18 02:55:01;;;;;;;3.72;2.42;;;5.40;61.90;;;;;;4313734;32;20073;-60
2021/04/18 02:57:27;;;;;;;5.62;2.47;;;5.40;61.00;;;;;;4325015;32;20075;-59
2021/04/18 02:59:54;;;;;;;4.35;2.37;;;5.40;61.90;;;;;;4361955;32;20073;-59
2021/04/18 03:02:20;;;;;;;5.00;2.80;;;5.50;61.60;;;;;;4348106;32;20085;-60
2021/04/18 03:04:47;;;;;;;5.47;2.87;;;5.50;62.00;;;;;;4323703;32;20070;-58
2021/04/18 03:07:13;;;;;;;6.25;3.40;;;5.50;63.40;;;;;;4324913;32;20066;-60
2021/04/18 03:09:39;;;;;;;6.68;2.95;;;5.50;63.50;;;;;;4348116;32;20167;-59
2021/04/18 03:12:06;;;;;;;7.85;3.05;;;5.40;63.70;;;;;;4323291;32;20617;-59
2021/04/18 03:14:32;;;;;;;6.25;3.20;;;5.50;63.90;;;;;;4347565;32;20081;-60
2021/04/18 03:16:59;;;;;;;6.82;3.15;;;5.50;65.90;;;;;;4323534;32;20078;-60
2021/04/18 03:19:25;;;;;;;5.37;2.83;;;5.70;64.40;;;;;;4324191;32;20082;-59
2021/04/18 03:21:51;;;;;;;3.70;2.58;;;5.70;64.50;;;;;;4335333;32;20151;-59
2021/04/18 03:24:17;;;;;;;6.53;2.70;;;5.80;62.60;;;;;;4361349;32;20066;-59
2021/04/18 03:26:43;;;;;;;5.95;2.70;;;5.90;63.20;;;;;;4348008;32;20070;-59
2021/04/18 03:29:09;;;;;;;5.07;2.30;;;6.00;61.60;;;;;;4361825;32;20143;-59
2021/04/18 03:31:35;;;;;;;8.10;3.00;;;6.20;61.20;;;;;;4351620;32;20063;-59
2021/04/18 03:34:02;;;;;;;6.00;2.20;;;6.20;61.00;;;;;;4325639;32;20081;-60
2021/04/18 03:36:28;;;;;;;3.37;2.08;;;6.40;61.00;;;;;;4311815;32;20175;-59
2021/04/18 03:38:54;;;;;;;4.35;2.47;;;6.60;60.70;;;;;;4337112;32;20094;-59
2021/04/18 03:41:20;;;;;;;4.03;2.00;;;6.70;58.70;;;;;;4323021;32;20105;-60
2021/04/18 03:43:46;;;;;;;4.87;2.20;;;6.90;57.10;;;;;;4335363;32;20079;-60
2021/04/18 03:46:12;;;;;;;3.67;2.20;;;7.10;55.70;;;;;;4335597;32;20082;-60
2021/04/18 03:48:39;;;;;;;2.90;2.00;;;7.10;54.30;;;;;;4325790;32;20074;-58
2021/04/18 03:51:05;;;;;;;6.95;2.30;;;7.20;55.20;;;;;;4338172;32;20093;-60
2021/04/18 03:53:32;;;;;;;4.80;2.10;;;7.30;54.60;;;;;;4338124;32;20071;-59
2021/04/18 03:55:58;;;;;;;2.72;1.92;;;7.40;54.70;;;;;;4338537;32;20078;-60
2021/04/18 03:58:25;;;;;;;7.35;2.30;;;7.50;54.30;;;;;;4326635;32;20150;-60
2021/04/18 04:00:51;;;;;;;10.43;2.65;;;7.60;53.60;;;;;;4329012;32;20070;-60
2021/04/18 04:03:17;;;;;;;3.47;1.92;;;7.80;53.70;;;;;;4343683;32;20501;-60
2021/04/18 04:05:43;;;;;;;5.10;2.03;;;7.90;53.60;;;;;;4342381;32;20070;-61
2021/04/18 04:08:09;;;;;;;2.45;1.50;;;8.10;52.90;;;;;;4326493;32;20071;-59
2021/04/18 04:10:36;;;;;;;2.90;1.70;;;8.20;52.40;;;;;;4325829;32;20077;-59
2021/04/18 04:13:02;;;;;;;4.45;2.22;;;8.30;52.20;;;;;;4313843;32;20174;-60
2021/04/18 04:15:29;;;;;;;3.30;1.73;;;8.50;51.00;;;;;;4362434;32;20070;-60
2021/04/18 04:17:55;;;;;;;4.28;2.12;;;8.70;50.10;;;;;;4338263;32;20168;-59
2021/04/18 04:20:21;;;;;;;4.55;2.33;;;8.90;46.80;;;;;;4351026;32;20070;-60
2021/04/18 04:22:47;;;;;;;3.55;1.75;;;9.00;46.50;;;;;;4362680;32;20073;-59
2021/04/18 04:25:13;;;;;;;3.55;2.28;;;9.20;46.20;;;;;;4362500;32;20157;-60
2021/04/18 04:27:40;;;;;;;2.97;1.83;;;9.30;45.80;;;;;;4363790;32;20167;-59
2021/04/18 04:30:07;;;;;;;3.58;2.00;;;9.50;45.10;;;;;;4338964;32;20079;-59
2021/04/18 04:32:33;;;;;;;5.30;2.28;;;9.60;44.90;;;;;;4337621;32;20074;-59
2021/04/18 04:34:59;;;;;;;2.97;2.10;;;9.60;43.60;;;;;;4347149;32;20074;-59
2021/04/18 04:37:25;;;;;;;5.35;2.35;;;9.60;44.00;;;;;;4325398;32;20073;-58
2021/04/18 04:40:55;;;;;;;4.45;2.33;;;9.80;44.10;;;;;;4325746;32;20090;-60
2021/04/18 04:44:21;;;;;;;5.70;3.00;;;9.80;43.90;;;;;;4364033;32;20078;-59
2021/04/18 04:47:47;;;;;;;5.87;3.00;;;10.00;43.30;;;;;;4364428;32;20236;-59
2021/04/18 04:50:14;;;;;;;7.72;3.22;;;10.50;42.60;;;;;;4350838;32;20075;-60
2021/04/18 04:52:40;;;;;;;7.75;3.47;;;11.20;40.20;;;;;;4337594;32;20442;-59
2021/04/18 04:55:07;;;;;;;7.78;4.22;;;11.40;39.40;;;;;;4325406;32;20078;-59
2021/04/18 04:57:33;;;;;;;7.25;3.15;;;11.50;39.00;;;;;;4325563;32;20070;-60
2021/04/18 04:59:59;;;;;;;9.18;2.90;;;12.00;39.20;;;;;;4363867;32;20082;-60
2021/04/18 05:02:25;;;;;;;7.93;2.87;;;13.00;35.70;;;;;;4349625;32;20132;-58
2021/04/18 05:04:51;;;;;;;7.50;2.97;;;13.10;35.20;;;;;;4350002;32;20157;-59
2021/04/18 05:07:17;;;;;;;13.48;6.45;;;14.10;33.90;;;;;;4325526;32;20078;-59
2021/04/18 05:09:44;;;;;;;11.48;5.65;;;13.60;30.20;;;;;;4337949;32;20089;-60
2021/04/18 05:12:10;;;;;;;7.95;3.95;;;13.50;30.60;;;;;;4337426;32;20515;-60
2021/04/18 05:14:36;;;;;;;10.30;5.07;;;14.00;30.30;;;;;;4325064;32;20078;-60
2021/04/18 05:17:03;;;;;;;12.20;4.03;;;14.10;29.10;;;;;;4325318;32;20178;-60
2021/04/18 05:19:29;;;;;;;10.23;3.75;;;14.50;28.10;;;;;;4338201;32;20143;-59
2021/04/18 05:21:55;;;;;;;6.20;3.58;;;13.90;28.60;;;;;;4349646;32;20073;-59
2021/04/18 05:25:21;;;;;;;6.68;2.80;;;13.60;29.40;;;;;;4358964;32;20063;-62
2021/04/18 05:28:48;;;;;;;5.32;2.72;;;14.40;28.10;;;;;;4360754;32;20086;-59
2021/04/18 05:32:14;;;;;;;6.28;2.70;;;14.50;28.80;;;;;;4350081;32;20150;-59
2021/04/18 05:34:41;;;;;;;8.15;3.37;;;14.90;26.70;;;;;;4370221;32;20137;-59
2021/04/18 05:37:07;;;;;;;6.20;3.20;;;14.20;27.40;;;;;;4363981;32;20066;-60
2021/04/18 05:39:33;;;;;;;5.30;3.10;;;14.00;27.50;;;;;;4364413;32;20174;-59
2021/04/18 05:41:59;;;;;;;6.85;3.53;;;14.20;27.20;;;;;;4339515;32;20082;-59
2021/04/18 05:44:25;;;;;;;5.95;2.87;;;14.10;27.30;;;;;;4327316;32;20074;-61
2021/04/18 05:46:52;;;;;;;6.37;2.62;;;14.00;27.70;;;;;;4364420;32;20155;-60
2021/04/18 05:49:18;;;;;;;4.50;2.50;;;14.50;27.50;;;;;;4352066;32;20496;-59
2021/04/18 05:51:44;;;;;;;5.25;2.70;;;14.20;27.30;;;;;;4366045;32;20070;-59
2021/04/18 05:54:10;;;;;;;3.60;2.37;;;14.20;27.50;;;;;;4362958;32;20465;-59
2021/04/18 05:56:36;;;;;;;8.70;2.90;;;14.40;27.40;;;;;;4357433;32;20460;-60
2021/04/18 05:59:02;;;;;;;4.07;2.45;;;14.60;26.70;;;;;;4339007;32;20082;-60
2021/04/18 06:01:29;;;;;;;4.37;2.70;;;14.70;26.70;;;;;;4351838;32;20163;-59
2021/04/18 06:03:55;;;;;;;8.13;3.00;;;14.20;27.20;;;;;;4339271;32;20092;-59
2021/04/18 06:06:26;;;;;;;4.37;2.10;;;14.40;28.40;;;;;;4339163;32;20174;-59
2021/04/18 06:08:53;;;;;;;6.72;2.90;;;15.20;27.20;;;;;;4351559;32;20062;-59
2021/04/18 06:11:20;;;;;;;7.32;2.95;;;15.30;24.70;;;;;;4339570;32;20062;-59
2021/04/18 06:13:47;;;;;;;4.45;2.40;;;15.50;25.20;;;;;;4326822;32;20497;-61
2021/04/18 06:16:13;;;;;;;5.47;2.90;;;14.60;26.40;;;;;;4339307;32;20093;-60
2021/04/18 06:18:39;;;;;;;4.57;2.70;;;14.90;25.80;;;;;;4363377;32;20516;-60
2021/04/18 06:21:06;;;;;;;7.50;2.40;;;14.50;26.70;;;;;;4351683;32;20504;-59
2021/04/18 06:23:32;;;;;;;3.85;1.90;;;14.70;27.30;;;;;;4350722;32;20529;-60
2021/04/18 06:25:59;;;;;;;8.13;2.80;;;14.60;26.50;;;;;;4338713;32;20528;-60
2021/04/18 06:28:25;;;;;;;7.93;2.90;;;15.00;27.20;;;;;;4363276;32;20183;-59
2021/04/18 06:30:51;;;;;;;5.28;3.22;;;15.40;26.20;;;;;;4351317;32;20160;-59
2021/04/18 06:33:18;;;;;;;8.48;2.95;;;15.10;25.20;;;;;;4363362;32;20081;-59
2021/04/18 06:35:44;;;;;;;7.15;2.72;;;14.30;26.40;;;;;;4350912;32;20090;-60
2021/04/18 06:38:11;;;;;;;4.60;2.53;;;14.30;27.40;;;;;;4338568;32;20054;-60
2021/04/18 06:40:37;;;;;;;6.28;2.65;;;14.50;26.70;;;;;;4339591;32;20188;-59
2021/04/18 06:43:07;;;;;;;7.07;3.05;;;14.90;26.90;;;;;;4363719;32;20116;-59
2021/04/18 06:45:34;;;;;;;6.75;2.67;;;15.20;25.90;;;;;;4328126;32;20090;-60
2021/04/18 06:48:01;;;;;;;5.25;2.90;;;15.50;26.40;;;;;;4327307;32;20070;-60
2021/04/18 06:50:28;;;;;;;7.43;2.70;;;15.70;26.50;;;;;;4351627;32;20156;-64
2021/04/18 06:52:54;;;;;;;11.23;2.95;;;15.90;25.30;;;;;;4339332;32;20129;-59
2021/04/18 06:55:21;;;;;;;5.30;2.90;;;14.90;25.80;;;;;;4338950;32;20071;-59
2021/04/18 06:57:47;;;;;;;3.65;1.73;;;14.80;25.70;;;;;;4354450;32;20124;-60
2021/04/18 07:00:14;;;;;;;4.28;2.08;;;15.00;25.70;;;;;;4379532;32;20102;-60
2021/04/18 07:02:40;;;;;;;7.32;2.30;;;15.20;25.00;;;;;;4352700;32;20086;-60
2021/04/18 07:05:13;;;;;;;2.75;2.12;;;15.80;24.60;;;;;;4338578;32;20141;-60
2021/04/18 07:07:41;;;;;;;4.20;2.10;;;15.20;24.60;;;;;;4338899;32;20156;-60
2021/04/18 07:10:13;;;;;;;3.22;1.37;;;15.50;26.00;;;;;;4351041;32;20082;-59
2021/04/18 07:12:40;;;;;;;3.42;1.90;;;14.90;25.00;;;;;;4340609;32;20440;-59
2021/04/18 07:15:07;;;;;;;4.12;2.25;;;15.20;25.20;;;;;;4326146;32;20225;-58
2021/04/18 07:17:45;;;;;;;2.72;1.50;;;14.80;24.70;;;;;;4336305;32;20134;-60
2021/04/18 07:20:14;;;;;;;3.85;1.90;;;14.80;25.60;;;;;;4323785;32;20075;-59
2021/04/18 07:22:40;;;;;;;5.00;1.73;;;15.10;25.40;;;;;;4348849;32;20193;-60
2021/04/18 07:25:07;;;;;;;9.27;2.53;;;15.10;25.20;;;;;;4336733;32;20108;-58
2021/04/18 07:27:51;;;;;;;4.05;1.80;;;15.10;24.80;;;;;;4348643;32;20086;-58
2021/04/18 07:30:20;;;;;;;4.40;2.30;;;15.20;25.80;;;;;;4347769;32;20078;-60
2021/04/18 07:33:03;;;;;;;1.92;1.23;;;14.90;24.40;;;;;;4335619;32;20085;-60
2021/04/18 07:35:40;;;;;;;5.43;1.67;;;15.00;25.60;;;;;;4335822;32;20441;-59
2021/04/18 07:38:27;;;;;;;2.00;1.45;;;15.00;24.70;;;;;;4334826;32;20078;-60
2021/04/18 07:41:18;;;;;;;3.53;1.70;;;15.20;24.90;;;;;;4323653;32;20074;-59
2021/04/18 07:43:45;;;;;;;1.90;1.75;;;15.80;25.80;;;;;;4350383;32;20071;-59
2021/04/18 07:46:12;;;;;;;3.85;1.30;;;16.40;24.00;;;;;;4348059;32;20450;-59
2021/04/18 07:48:38;;;;;;;3.03;1.90;;;15.50;24.00;;;;;;4348296;32;20437;-59
2021/04/18 07:51:05;;;;;;;3.60;1.60;;;15.80;24.50;;;;;;4335610;32;20063;-60
2021/04/18 07:53:31;;;;;;;2.65;1.17;;;16.00;25.60;;;;;;4323518;32;20082;-59
2021/04/18 07:55:57;;;;;;;2.83;1.55;;;15.80;24.50;;;;;;4348334;32;20508;-60
2021/04/18 07:58:24;;;;;;;4.45;1.50;;;15.80;24.30;;;;;;4323640;32;20070;-59
2021/04/18 08:00:50;;;;;;;2.17;1.65;;;15.80;24.50;;;;;;4335627;32;20515;-60
2021/04/18 08:03:16;;;;;;;4.45;2.10;;;15.70;24.40;;;;;;4348404;32;20067;-60
2021/04/18 08:05:43;;;;;;;4.00;1.80;;;15.50;24.80;;;;;;4335374;32;20058;-59
2021/04/18 08:08:13;;;;;;;4.35;2.10;;;15.80;24.10;;;;;;4335341;32;20498;-60
2021/04/18 08:10:43;;;;;;;2.75;1.45;;;15.50;23.60;;;;;;4335692;32;20069;-59
2021/04/18 08:13:20;;;;;;;4.05;1.87;;;16.10;24.40;;;;;;4347432;32;20142;-59
2021/04/18 08:16:01;;;;;;;5.10;2.08;;;15.90;24.50;;;;;;4347611;32;20630;-59
2021/04/18 08:18:46;;;;;;;5.12;1.58;;;15.80;24.60;;;;;;4347826;32;20070;-61
2021/04/18 08:21:39;;;;;;;3.60;1.73;;;16.40;24.90;;;;;;4349312;32;20074;-59
2021/04/18 08:24:28;;;;;;;6.12;1.80;;;16.40;24.20;;;;;;4349403;32;20066;-59
2021/04/18 08:27:11;;;;;;;5.07;1.90;;;16.30;24.70;;;;;;4353842;32;20067;-60
2021/04/18 08:30:03;;;;;;;5.85;2.03;;;16.00;24.50;;;;;;4336297;32;20054;-59
2021/04/18 08:32:46;;;;;;;6.03;2.10;;;16.20;25.20;;;;;;4359529;32;20078;-59
2021/04/18 08:35:17;;;;;;;5.90;2.22;;;16.00;24.90;;;;;;4347250;32;20138;-59
2021/04/18 08:37:44;;;;;;;6.97;1.83;;;15.80;24.30;;;;;;4337901;32;20067;-59
2021/04/18 08:40:11;;;;;;;4.85;1.60;;;16.00;24.80;;;;;;4326325;32;20150;-60
2021/04/18 08:42:39;;;;;;;3.20;1.73;;;16.10;24.70;;;;;;4327568;32;20074;-59
2021/04/18 08:45:06;;;;;;;2.65;1.35;;;16.00;24.20;;;;;;4338527;32;20162;-60
2021/04/18 08:47:34;;;;;;;3.50;1.33;;;16.40;24.10;;;;;;4350050;32;20066;-60
2021/04/18 08:53:43;;;;;;;2.25;1.35;;;16.10;23.70;;;;;;3834471;37;20058;-60
2021/04/18 08:57:12;;;;;;;1.30;1.00;;;17.10;22.80;;;;;;4390693;32;20610;-59
2021/04/18 09:00:39;;;;;;;4.87;1.77;;;16.90;22.30;;;;;;4396050;32;20119;-60
2021/04/18 09:03:05;;;;;;;3.33;1.77;;;16.20;22.40;;;;;;4405112;32;20524;-59
2021/04/18 09:05:32;;;;;;;4.47;1.85;;;16.40;22.50;;;;;;4378022;32;20441;-59
2021/04/18 09:08:04;;;;;;;4.10;1.58;;;16.60;22.50;;;;;;4353195;32;20496;-65
2021/04/18 09:10:34;;;;;;;2.60;1.77;;;17.40;21.80;;;;;;4353634;32;20073;-58
2021/04/18 09:13:01;;;;;;;3.33;1.80;;;16.80;21.90;;;;;;4366077;32;20062;-59
2021/04/18 09:15:31;;;;;;;3.53;1.95;;;16.20;22.10;;;;;;4388174;32;20062;-60
2021/04/18 09:17:58;;;;;;;6.43;2.30;;;16.60;22.70;;;;;;4351284;32;20149;-59
2021/04/18 09:20:24;;;;;;;13.02;4.47;;;16.80;22.70;;;;;;4363142;32;20073;-59
2021/04/18 09:22:51;;;;;;;5.97;3.58;;;16.90;23.10;;;;;;4363658;32;20142;-59
2021/04/18 09:25:18;;;;;;;3.70;2.42;;;16.70;23.30;;;;;;4363082;32;20089;-61
2021/04/18 09:27:45;;;;;;;5.53;3.37;;;16.80;22.80;;;;;;4363663;32;20495;-60
2021/04/18 09:30:21;;;;;;;4.82;2.33;;;17.10;22.40;;;;;;4387101;32;20125;-58
2021/04/18 09:32:52;;;;;;;8.55;4.65;;;17.00;22.70;;;;;;4369359;32;20055;-59
2021/04/18 09:35:22;;;;;;;7.50;3.85;;;17.10;22.80;;;;;;4348377;32;20077;-59
2021/04/18 09:37:56;;;;;;;6.03;3.40;;;16.80;22.90;;;;;;4358230;32;20070;-65
2021/04/18 09:40:25;;;;;;;7.12;4.30;;;16.80;22.70;;;;;;4344815;32;20070;-60
2021/04/18 09:42:52;;;;;;;3.58;2.00;;;16.90;23.40;;;;;;4343978;32;20196;-60
2021/04/18 09:45:37;;;;;;;4.68;1.85;;;17.10;23.20;;;;;;4355369;32;20073;-60
2021/04/18 09:48:33;;;;;;;7.80;3.62;;;16.80;22.40;;;;;;4349929;32;20078;-61
2021/04/18 09:51:00;;;;;;;3.30;2.10;;;16.70;22.30;;;;;;4336910;32;20070;-59
2021/04/18 09:53:29;;;;;;;2.78;1.75;;;17.20;22.90;;;;;;4343958;32;20059;-60
2021/04/18 09:56:03;;;;;;;8.52;5.20;;;16.70;22.40;;;;;;4356313;32;20082;-61
2021/04/18 09:58:40;;;;;;;6.65;2.90;;;17.00;22.90;;;;;;4341639;32;20474;-60
2021/04/18 10:01:29;;;;;;;5.93;2.70;;;17.00;22.60;;;;;;4339591;32;20059;-60
2021/04/18 10:03:55;;;;;;;5.47;1.77;;;17.00;22.20;;;;;;4330666;32;20089;-61
2021/04/18 10:06:23;;;;;;;5.40;1.70;;;17.10;22.60;;;;;;4313453;32;20066;-60
2021/04/18 10:08:57;;;;;;;8.05;2.30;;;17.40;22.60;;;;;;4337918;32;20070;-59
2021/04/18 10:11:23;;;;;;;6.40;2.60;;;17.10;21.90;;;;;;4325857;32;20078;-59
2021/04/18 10:13:54;;;;;;;4.70;2.70;;;16.80;22.00;;;;;;4325242;32;20067;-60
2021/04/18 10:16:25;;;;;;;5.10;2.35;;;17.00;21.60;;;;;;4337608;32;20539;-60
2021/04/18 10:19:15;;;;;;;3.80;1.67;;;17.00;21.80;;;;;;4325643;32;20089;-60
2021/04/18 10:22:03;;;;;;;19.17;3.37;;;17.10;21.50;;;;;;4337889;32;20508;-59
2021/04/18 10:24:34;;;;;;;2.55;1.42;;;17.80;22.10;;;;;;4341678;32;20059;-58
2021/04/18 10:27:01;;;;;;;5.68;1.60;;;17.50;21.70;;;;;;4337678;32;20093;-60
2021/04/18 10:29:27;;;;;;;2.22;1.62;;;17.30;21.10;;;;;;4312973;32;20071;-59
2021/04/18 10:31:54;;;;;;;6.93;2.70;;;17.30;21.10;;;;;;4349343;32;20149;-60
2021/04/18 10:34:20;;;;;;;6.45;1.67;;;17.00;20.90;;;;;;4326850;32;20074;-60
2021/04/18 10:36:49;;;;;;;3.15;1.42;;;17.20;21.20;;;;;;4348759;32;20464;-60
2021/04/18 10:39:18;;;;;;;4.45;1.55;;;17.60;21.80;;;;;;4337768;32;20059;-59
2021/04/18 10:41:45;;;;;;;3.75;1.83;;;17.50;20.90;;;;;;4349450;32;20066;-59
2021/04/18 10:44:20;;;;;;;6.12;2.22;;;17.60;21.60;;;;;;4349941;32;20078;-60
2021/04/18 10:46:53;;;;;;;2.93;1.70;;;17.30;20.80;;;;;;4353660;32;20064;-61
2021/04/18 10:49:19;;;;;;;4.60;2.20;;;17.80;21.20;;;;;;4350474;32;20481;-59
2021/04/18 10:51:47;;;;;;;5.20;2.55;;;17.40;20.30;;;;;;4349034;32;20517;-60
2021/04/18 10:54:14;;;;;;;6.90;2.20;;;17.30;19.90;;;;;;4349201;32;20143;-59
2021/04/18 10:56:41;;;;;;;4.05;1.62;;;17.60;20.40;;;;;;4336481;32;20543;-59
2021/04/18 10:59:07;;;;;;;5.03;2.10;;;17.50;20.90;;;;;;4349255;32;20170;-61
2021/04/18 11:01:34;;;;;;;2.65;2.10;;;17.40;19.00;;;;;;4349543;32;20063;-60
2021/04/18 11:05:00;;;;;;;2.67;1.55;;;17.30;19.40;;;;;;4349654;32;20077;-59
2021/04/18 11:08:27;;;;;;;5.05;1.90;;;18.00;19.90;;;;;;4363350;32;20070;-60
2021/04/18 11:11:53;;;;;;;6.03;1.85;;;17.90;20.00;;;;;;4362843;32;20149;-59
2021/04/18 11:14:19;;;;;;;5.18;2.10;;;18.10;20.30;;;;;;4355142;32;20071;-59
2021/04/18 11:16:46;;;;;;;5.65;1.80;;;18.10;20.30;;;;;;4348697;32;20588;-60
2021/04/18 11:19:12;;;;;;;7.00;2.25;;;17.80;19.50;;;;;;4324401;32;20575;-60
2021/04/18 11:21:38;;;;;;;3.97;1.80;;;17.60;19.70;;;;;;4324341;32;20097;-60
2021/04/18 11:24:05;;;;;;;3.62;2.08;;;17.80;19.80;;;;;;4348860;32;20074;-59
2021/04/18 11:26:31;;;;;;;3.75;2.25;;;17.80;19.70;;;;;;4336997;32;20077;-59
2021/04/18 11:28:57;;;;;;;5.82;1.70;;;17.90;19.50;;;;;;4336174;32;20071;-59
2021/04/18 11:31:24;;;;;;;5.82;2.60;;;18.10;20.00;;;;;;4336495;32;20171;-60
2021/04/18 11:33:51;;;;;;;10.32;3.03;;;17.90;19.80;;;;;;4325630;32;20092;-59
2021/04/18 11:36:18;;;;;;;5.05;2.00;;;17.90;20.10;;;;;;4363052;32;20063;-60
2021/04/18 11:38:46;;;;;;;3.12;2.00;;;18.70;19.10;;;;;;4348709;32;20086;-60
2021/04/18 11:41:12;;;;;;;6.97;3.00;;;18.20;19.20;;;;;;4349016;32;20445;-60
2021/04/18 11:44:39;;;;;;;5.93;3.17;;;18.10;19.90;;;;;;4348542;32;20067;-60
2021/04/18 11:48:05;;;;;;;5.20;2.45;;;18.00;19.90;;;;;;4362181;32;20208;-60
2021/04/18 11:51:32;;;;;;;6.78;2.45;;;18.00;20.40;;;;;;4362123;32;20122;-59
2021/04/18 11:53:58;;;;;;;4.78;2.00;;;17.90;20.50;;;;;;4361232;32;20572;-60
2021/04/18 11:56:25;;;;;;;7.12;2.75;;;18.20;20.10;;;;;;4360530;32;20469;-59
2021/04/18 11:58:51;;;;;;;12.52;3.95;;;18.20;20.10;;;;;;4348219;32;20150;-60
2021/04/18 12:01:17;;;;;;;8.30;3.87;;;17.70;20.50;;;;;;4348086;32;20084;-60
2021/04/18 12:03:43;;;;;;;11.10;3.85;;;18.00;20.20;;;;;;4348074;32;20071;-60
2021/04/18 12:06:09;;;;;;;10.10;4.28;;;18.00;20.60;;;;;;4360469;32;20078;-60
2021/04/18 12:08:35;;;;;;;11.95;4.57;;;17.80;19.80;;;;;;4361830;32;20086;-60
2021/04/18 12:11:02;;;;;;;26.75;5.07;;;17.90;20.20;;;;;;4347536;32;20527;-60
2021/04/18 12:13:29;;;;;;;6.22;2.95;;;17.90;20.60;;;;;;4335265;32;20145;-60
2021/04/18 12:15:55;;;;;;;6.70;3.50;;;17.60;20.40;;;;;;4335718;32;20079;-59
2021/04/18 12:18:21;;;;;;;10.23;3.45;;;17.80;20.00;;;;;;4335540;32;20075;-60
2021/04/18 12:20:48;;;;;;;7.90;2.90;;;18.00;20.00;;;;;;4324056;32;20493;-60
2021/04/18 12:23:15;;;;;;;6.80;2.80;;;17.80;20.10;;;;;;4311302;32;20063;-58
2021/04/18 12:25:41;;;;;;;5.28;2.60;;;17.80;19.90;;;;;;4323470;32;20495;-60
2021/04/18 12:28:08;;;;;;;6.93;2.33;;;17.70;19.90;;;;;;4335558;32;20134;-59
2021/04/18 12:30:35;;;;;;;3.92;2.30;;;17.60;19.70;;;;;;4335329;32;20075;-60
2021/04/18 12:33:01;;;;;;;5.28;1.90;;;17.90;19.70;;;;;;4323045;32;20078;-60
2021/04/18 12:35:27;;;;;;;4.12;1.90;;;18.00;19.90;;;;;;4349653;32;20527;-59
2021/04/18 12:37:53;;;;;;;3.17;1.05;;;18.00;20.20;;;;;;4335589;32;20158;-60
2021/04/18 12:40:19;;;;;;;2.60;1.50;;;18.40;20.00;;;;;;4347590;32;20069;-60
2021/04/18 12:42:46;;;;;;;7.00;2.90;;;18.60;19.50;;;;;;4347735;32;20525;-59
2021/04/18 12:45:12;;;;;;;2.67;1.40;;;17.90;20.00;;;;;;4335672;32;20144;-60
2021/04/18 12:47:39;;;;;;;4.82;1.75;;;18.10;19.80;;;;;;4323763;32;20165;-60
2021/04/18 12:50:07;;;;;;;4.50;2.10;;;18.00;19.80;;;;;;4326743;32;20526;-59
2021/04/18 12:52:34;;;;;;;5.57;2.60;;;18.10;19.70;;;;;;4326926;32;20090;-59
2021/04/18 12:55:00;;;;;;;3.70;2.53;;;18.10;20.20;;;;;;4314874;32;20071;-59
2021/04/18 12:57:26;;;;;;;4.43;2.12;;;17.90;19.70;;;;;;4325409;32;20172;-61
2021/04/18 12:59:54;;;;;;;5.45;2.33;;;18.00;19.30;;;;;;4313062;32;20062;-58
2021/04/18 13:02:22;;;;;;;13.70;4.32;;;18.20;19.60;;;;;;4325727;32;20077;-58
2021/04/18 13:04:58;;;;;;;4.60;2.60;;;17.70;20.30;;;;;;4325312;32;20497;-59
2021/04/18 13:07:27;;;;;;;4.55;2.50;;;18.00;20.10;;;;;;4328499;32;20077;-59
2021/04/18 13:09:54;;;;;;;4.45;2.53;;;18.10;20.40;;;;;;4319214;32;20216;-59
2021/04/18 13:12:21;;;;;;;5.47;2.20;;;18.10;19.70;;;;;;4317734;32;20073;-59
2021/04/18 13:15:52;;;;;;;7.12;3.30;;;17.90;20.10;;;;;;4332425;32;20073;-60